Time,TemperatureF,DewpointF,PressureIn,WindDirection,WindDirectionDegrees,WindSpeedMPH,WindSpeedGustMPH,Humidity,HourlyPrecipIn,Conditions,Clouds,dailyrainin,SoftwareType,DateUTC
2013-06-26 00:22:00,80.0,78.0,30.08,East,91,3.0,5.0,95,99.99,,,-99.99,,2013-06-26 04:22:00,
2013-06-26 00:33:00,80.0,78.0,30.08,East,91,3.0,5.0,95,99.99,,,-99.99,,2013-06-26 04:33:00,
2013-06-26 00:43:00,79.0,78.0,30.09,SE,125,3.0,6.0,96,99.99,,,-99.99,,2013-06-26 04:43:00,
2013-06-26 00:53:00,79.0,78.0,30.08,SE,128,3.0,6.0,96,99.99,,,-99.99,,2013-06-26 04:53:00,
2013-06-26 01:34:00,79.0,78.0,30.08,SE,146,4.0,8.0,97,99.99,,,-99.99,,2013-06-26 05:34:00,
2013-06-26 01:43:00,79.0,78.0,30.07,SE,136,4.0,7.0,98,99.99,,,-99.99,,2013-06-26 05:43:00,
2013-06-26 02:34:00,77.0,77.0,30.05,SE,138,3.0,4.0,100,99.99,,,-99.99,,2013-06-26 06:34:00,
2013-06-26 02:43:00,77.0,77.0,30.05,SE,143,2.0,4.0,100,99.99,,,-99.99,,2013-06-26 06:43:00,
2013-06-26 02:53:00,77.0,77.0,30.04,SE,131,2.0,3.0,100,99.99,,,-99.99,,2013-06-26 06:53:00,
2013-06-26 03:01:00,77.0,77.0,30.04,SE,134,3.0,4.0,100,99.99,,,-99.99,,2013-06-26 07:01:00,
2013-06-26 03:11:00,77.0,77.0,30.03,SSE,153,4.0,6.0,100,99.99,,,-99.99,,2013-06-26 07:11:00,
2013-06-26 03:43:00,76.0,76.0,30.03,SE,141,2.0,3.0,100,99.99,,,-99.99,,2013-06-26 07:43:00,
2013-06-26 03:53:00,76.0,76.0,30.03,SE,124,1.0,3.0,100,99.99,,,-99.99,,2013-06-26 07:53:00,
2013-06-26 04:01:00,76.0,76.0,30.03,SE,129,3.0,4.0,100,99.99,,,-99.99,,2013-06-26 08:01:00,
2013-06-26 04:33:00,76.0,76.0,30.03,SSE,153,3.0,5.0,100,99.99,,,-99.99,,2013-06-26 08:33:00,
2013-06-26 04:42:00,76.0,76.0,30.03,SSE,165,2.0,5.0,100,99.99,,,-99.99,,2013-06-26 08:42:00,
2013-06-26 05:01:00,76.0,76.0,30.03,South,172,5.0,7.0,100,99.99,,,-99.99,,2013-06-26 09:01:00,
2013-06-26 05:43:00,75.0,75.0,30.05,North,0,0.0,0.0,100,99.99,,,-99.99,,2013-06-26 09:43:00,
2013-06-26 07:44:00,76.0,76.0,30.08,SE,127,0.0,1.0,100,99.99,,,-99.99,,2013-06-26 11:44:00,
2013-06-26 07:52:00,76.0,76.0,30.07,North,0,0.0,0.0,100,99.99,,,-99.99,,2013-06-26 11:52:00,
2013-06-26 08:33:00,78.0,78.0,30.08,East,97,3.0,4.0,100,99.99,,,-99.99,,2013-06-26 12:33:00,
2013-06-26 08:42:00,79.0,79.0,30.08,SSE,153,3.0,5.0,100,99.99,,,-99.99,,2013-06-26 12:42:00,
2013-06-26 08:52:00,79.0,79.0,30.08,SSE,155,3.0,7.0,100,99.99,,,-99.99,,2013-06-26 12:52:00,
2013-06-26 09:34:00,82.0,78.0,30.09,South,180,5.0,9.0,88,99.99,,,-99.99,,2013-06-26 13:34:00,
2013-06-26 10:02:00,84.0,75.0,30.08,SSE,152,5.0,8.0,75,99.99,,,-99.99,,2013-06-26 14:02:00,
2013-06-26 10:34:00,85.0,75.0,30.08,South,180,5.0,9.0,72,99.99,,,-99.99,,2013-06-26 14:34:00,
2013-06-26 10:42:00,86.0,75.0,30.08,South,174,5.0,8.0,69,99.99,,,-99.99,,2013-06-26 14:42:00,
2013-06-26 10:53:00,86.0,75.0,30.08,South,173,4.0,7.0,69,99.99,,,-99.99,,2013-06-26 14:53:00,
2013-06-26 11:02:00,88.0,76.0,30.08,South,191,4.0,7.0,67,99.99,,,-99.99,,2013-06-26 15:02:00,
2013-06-26 11:12:00,88.0,75.0,30.08,SSE,155,1.0,3.0,65,99.99,,,-99.99,,2013-06-26 15:12:00,
2013-06-26 11:34:00,89.0,75.0,30.08,South,170,4.0,8.0,63,99.99,,,-99.99,,2013-06-26 15:34:00,
2013-06-26 11:44:00,89.0,74.0,30.09,WSW,238,3.0,6.0,62,99.99,,,-99.99,,2013-06-26 15:44:00,
2013-06-26 12:34:00,93.0,73.0,30.08,SE,146,1.0,5.0,53,99.99,,,-99.99,,2013-06-26 16:34:00,
2013-06-26 13:43:00,91.0,73.0,30.07,SSE,162,3.0,5.0,55,99.99,,,-99.99,,2013-06-26 17:43:00,
2013-06-26 13:52:00,91.0,73.0,30.06,South,191,2.0,5.0,55,99.99,,,-99.99,,2013-06-26 17:52:00,
2013-06-26 14:43:00,92.0,71.0,30.04,WNW,287,3.0,7.0,51,99.99,,,-99.99,,2013-06-26 18:43:00,
2013-06-26 15:11:00,93.0,72.0,30.03,ENE,72,0.0,3.0,50,99.99,,,-99.99,,2013-06-26 19:11:00,
2013-06-26 16:01:00,87.0,74.0,30.03,West,271,6.0,13.0,66,99.99,,,-99.99,,2013-06-26 20:01:00,
2013-06-26 16:33:00,80.0,75.0,30.06,SSE,166,13.0,20.0,84,99.99,,,-99.99,,2013-06-26 20:33:00,
2013-06-26 16:43:00,79.0,75.0,30.07,SE,143,12.0,23.0,88,99.99,,,-99.99,,2013-06-26 20:43:00,
2013-06-26 17:23:00,74.0,74.0,30.10,SE,146,12.0,17.0,100,99.99,,,-99.99,,2013-06-26 21:23:00,
2013-06-26 17:33:00,74.0,74.0,30.09,SE,146,14.0,25.0,100,99.99,,,-99.99,,2013-06-26 21:33:00,
2013-06-26 17:43:00,73.0,73.0,30.09,SE,145,9.0,18.0,100,99.99,,,-99.99,,2013-06-26 21:43:00,
2013-06-26 18:43:00,73.0,73.0,30.07,NE,46,4.0,5.0,100,99.99,,,-99.99,,2013-06-26 22:43:00,
2013-06-26 18:52:00,73.0,73.0,30.07,NNW,346,4.0,6.0,100,99.99,,,-99.99,,2013-06-26 22:52:00,
2013-06-26 19:11:00,73.0,73.0,30.06,ENE,75,3.0,6.0,100,99.99,,,-99.99,,2013-06-26 23:11:00,
2013-06-26 19:34:00,73.0,73.0,30.01,SSE,167,8.0,11.0,100,99.99,,,-99.99,,2013-06-26 23:34:00,
2013-06-26 19:43:00,73.0,73.0,30.02,South,169,2.0,7.0,100,99.99,,,-99.99,,2013-06-26 23:43:00,
2013-06-26 19:52:00,73.0,73.0,30.03,West,260,1.0,4.0,100,99.99,,,-99.99,,2013-06-26 23:52:00,
2013-06-26 20:01:00,73.0,73.0,30.04,WNW,283,4.0,6.0,100,99.99,,,-99.99,,2013-06-27 00:01:00,
2013-06-26 20:12:00,73.0,73.0,30.03,West,278,1.0,3.0,100,99.99,,,-99.99,,2013-06-27 00:12:00,
2013-06-26 20:33:00,73.0,73.0,30.04,WSW,242,2.0,4.0,100,99.99,,,-99.99,,2013-06-27 00:33:00,
2013-06-26 20:43:00,73.0,73.0,30.05,West,274,1.0,3.0,100,99.99,,,-99.99,,2013-06-27 00:43:00,
2013-06-26 20:53:00,73.0,73.0,30.05,NW,322,0.0,1.0,100,99.99,,,-99.99,,2013-06-27 00:53:00,
2013-06-26 21:01:00,73.0,73.0,30.05,North,0,0.0,0.0,100,99.99,,,-99.99,,2013-06-27 01:01:00,
2013-06-26 21:11:00,73.0,73.0,30.05,North,0,0.0,0.0,100,99.99,,,-99.99,,2013-06-27 01:11:00,
2013-06-26 21:21:00,73.0,73.0,30.06,North,0,0.0,0.0,100,99.99,,,-99.99,,2013-06-27 01:21:00,
2013-06-26 21:32:00,73.0,73.0,30.07,East,90,1.0,3.0,100,99.99,,,-99.99,,2013-06-27 01:32:00,
2013-06-26 21:43:00,73.0,73.0,30.07,East,90,1.0,3.0,100,99.99,,,-99.99,,2013-06-27 01:43:00,
2013-06-26 21:53:00,73.0,73.0,30.07,East,90,1.0,3.0,100,99.99,,,-99.99,,2013-06-27 01:53:00,
2013-06-26 22:01:00,73.0,73.0,30.07,East,90,1.0,3.0,100,99.99,,,-99.99,,2013-06-27 02:01:00,
2013-06-26 22:11:00,73.0,73.0,30.07,SSE,149,1.0,4.0,100,99.99,,,-99.99,,2013-06-27 02:11:00,
2013-06-26 22:32:00,73.0,73.0,30.07,SSE,149,2.0,4.0,100,99.99,,,-99.99,,2013-06-27 02:32:00,
2013-06-26 22:42:00,73.0,73.0,30.07,SSE,149,2.0,4.0,100,99.99,,,-99.99,,2013-06-27 02:42:00,
2013-06-26 22:52:00,73.0,73.0,30.07,SSE,149,2.0,4.0,100,99.99,,,-99.99,,2013-06-27 02:52:00,
2013-06-26 23:21:00,72.0,72.0,30.05,South,177,6.0,9.0,100,99.99,,,-99.99,,2013-06-27 03:21:00,
2013-06-26 23:33:00,72.0,72.0,30.05,South,177,6.0,9.0,100,99.99,,,-99.99,,2013-06-27 03:33:00,
2013-06-26 23:52:00,72.0,72.0,30.04,South,176,6.0,10.0,100,99.99,,,-99.99,,2013-06-27 03:52:00,